sensor_id;sensor_type;location;lat;lon;timestamp;pressure;altitude;pressure_sealevel;temperature;humidity
21742;BME280;11033;47.490;11.116;2023-04-09T00:01:37;93656.63;;;2.98;95.71
21742;BME280;11033;47.490;11.116;2023-04-09T00:04:02;93653.63;;;3.03;95.38
21742;BME280;11033;47.490;11.116;2023-04-09T00:06:29;93649.50;;;2.91;95.14
21742;BME280;11033;47.490;11.116;2023-04-09T00:08:55;93656.63;;;2.98;96.23
21742;BME280;11033;47.490;11.116;2023-04-09T00:11:20;93652.97;;;3.10;94.91
21742;BME280;11033;47.490;11.116;2023-04-09T00:13:46;93648.47;;;3.12;93.82
21742;BME280;11033;47.490;11.116;2023-04-09T00:16:11;93651.00;;;2.93;95.23
21742;BME280;11033;47.490;11.116;2023-04-09T00:18:37;93648.13;;;2.96;95.17
21742;BME280;11033;47.490;11.116;2023-04-09T00:21:02;93649.25;;;3.03;94.35
21742;BME280;11033;47.490;11.116;2023-04-09T00:23:27;93641.59;;;3.02;95.26
21742;BME280;11033;47.490;11.116;2023-04-09T00:25:52;93641.44;;;3.03;95.77
21742;BME280;11033;47.490;11.116;2023-04-09T00:28:18;93635.00;;;2.98;95.35
21742;BME280;11033;47.490;11.116;2023-04-09T00:30:43;93632.03;;;3.12;94.45
21742;BME280;11033;47.490;11.116;2023-04-09T00:33:08;93636.78;;;2.97;96.11
21742;BME280;11033;47.490;11.116;2023-04-09T00:35:34;93633.75;;;2.92;97.56
21742;BME280;11033;47.490;11.116;2023-04-09T00:37:59;93638.84;;;3.03;96.70
21742;BME280;11033;47.490;11.116;2023-04-09T00:40:25;93640.06;;;2.99;96.74
21742;BME280;11033;47.490;11.116;2023-04-09T00:42:51;93638.31;;;3.09;95.16
21742;BME280;11033;47.490;11.116;2023-04-09T00:45:16;93636.38;;;3.02;95.92
21742;BME280;11033;47.490;11.116;2023-04-09T00:47:41;93637.56;;;2.88;95.94
21742;BME280;11033;47.490;11.116;2023-04-09T00:50:09;93638.84;;;3.03;96.57
21742;BME280;11033;47.490;11.116;2023-04-09T00:52:35;93636.94;;;3.05;96.45
21742;BME280;11033;47.490;11.116;2023-04-09T00:55:03;93642.69;;;3.09;96.17
21742;BME280;11033;47.490;11.116;2023-04-09T00:57:29;93636.94;;;3.05;95.92
21742;BME280;11033;47.490;11.116;2023-04-09T00:59:54;93638.84;;;3.03;95.94
21742;BME280;11033;47.490;11.116;2023-04-09T01:02:20;93638.56;;;2.97;96.67
21742;BME280;11033;47.490;11.116;2023-04-09T01:04:46;93645.13;;;2.91;97.04
21742;BME280;11033;47.490;11.116;2023-04-09T01:09:50;93636.47;;;2.91;97.75
21742;BME280;11033;47.490;11.116;2023-04-09T01:12:35;93633.66;;;3.03;96.80
21742;BME280;11033;47.490;11.116;2023-04-09T01:15:08;93636.38;;;3.02;96.55
21742;BME280;11033;47.490;11.116;2023-04-09T01:17:39;93634.41;;;2.84;97.76
21742;BME280;11033;47.490;11.116;2023-04-09T01:20:50;93633.88;;;2.91;97.72
21742;BME280;11033;47.490;11.116;2023-04-09T01:25:59;93635.22;;;2.85;98.21
21742;BME280;11033;47.490;11.116;2023-04-09T01:28:34;93634.16;;;2.88;98.43
21742;BME280;11033;47.490;11.116;2023-04-09T01:31:06;93629.25;;;2.94;98.02
21742;BME280;11033;47.490;11.116;2023-04-09T01:33:33;93626.06;;;2.91;97.13
21742;BME280;11033;47.490;11.116;2023-04-09T01:36:00;93633.28;;;2.77;98.09
21742;BME280;11033;47.490;11.116;2023-04-09T01:38:26;93630.88;;;2.95;96.46
21742;BME280;11033;47.490;11.116;2023-04-09T01:40:53;93635.75;;;2.79;98.10
21742;BME280;11033;47.490;11.116;2023-04-09T01:43:20;93633.84;;;2.81;97.59
21742;BME280;11033;47.490;11.116;2023-04-09T01:45:46;93623.19;;;2.84;96.74
21742;BME280;11033;47.490;11.116;2023-04-09T01:48:12;93633.16;;;2.79;97.01
21742;BME280;11033;47.490;11.116;2023-04-09T01:50:39;93632.06;;;2.81;97.06
21742;BME280;11033;47.490;11.116;2023-04-09T01:53:04;93629.19;;;2.75;98.69
21742;BME280;11033;47.490;11.116;2023-04-09T01:55:30;93630.81;;;2.76;99.39
21742;BME280;11033;47.490;11.116;2023-04-09T01:57:55;93635.22;;;2.85;98.04
21742;BME280;11033;47.490;11.116;2023-04-09T02:00:21;93625.78;;;2.84;98.28
21742;BME280;11033;47.490;11.116;2023-04-09T02:05:43;93636.28;;;2.73;99.05
21742;BME280;11033;47.490;11.116;2023-04-09T02:08:11;93629.06;;;2.86;97.40
21742;BME280;11033;47.490;11.116;2023-04-09T02:10:41;93639.31;;;2.78;98.13
21742;BME280;11033;47.490;11.116;2023-04-09T02:13:10;93635.28;;;2.64;98.41
21742;BME280;11033;47.490;11.116;2023-04-09T02:15:39;93636.38;;;2.62;99.09
21742;BME280;11033;47.490;11.116;2023-04-09T02:18:20;93635.66;;;2.60;99.78
21742;BME280;11033;47.490;11.116;2023-04-09T02:20:45;93636.53;;;2.70;98.72
21742;BME280;11033;47.490;11.116;2023-04-09T02:23:11;93631.41;;;2.59;99.71
21742;BME280;11033;47.490;11.116;2023-04-09T02:25:36;93622.78;;;2.58;99.41
21742;BME280;11033;47.490;11.116;2023-04-09T02:28:01;93633.50;;;2.65;98.11
21742;BME280;11033;47.490;11.116;2023-04-09T02:30:27;93634.91;;;2.48;99.97
21742;BME280;11033;47.490;11.116;2023-04-09T02:32:52;93630.81;;;2.45;100.00
21742;BME280;11033;47.490;11.116;2023-04-09T02:35:17;93629.84;;;2.46;100.00
21742;BME280;11033;47.490;11.116;2023-04-09T02:37:42;93632.00;;;2.41;100.00
21742;BME280;11033;47.490;11.116;2023-04-09T02:40:08;93628.56;;;2.62;98.60
21742;BME280;11033;47.490;11.116;2023-04-09T02:42:34;93625.25;;;2.60;98.90
21742;BME280;11033;47.490;11.116;2023-04-09T02:44:59;93633.25;;;2.68;97.19
21742;BME280;11033;47.490;11.116;2023-04-09T02:47:24;93634.00;;;2.59;98.66
21742;BME280;11033;47.490;11.116;2023-04-09T02:49:51;93637.06;;;2.64;98.94
21742;BME280;11033;47.490;11.116;2023-04-09T02:52:16;93625.22;;;2.50;99.80
21742;BME280;11033;47.490;11.116;2023-04-09T02:54:43;93622.84;;;2.68;99.48
21742;BME280;11033;47.490;11.116;2023-04-09T02:57:08;93624.13;;;2.52;100.00
21742;BME280;11033;47.490;11.116;2023-04-09T02:59:34;93618.94;;;2.52;100.00
21742;BME280;11033;47.490;11.116;2023-04-09T03:02:00;93621.13;;;2.57;98.93
21742;BME280;11033;47.490;11.116;2023-04-09T03:04:25;93620.72;;;2.52;98.58
21742;BME280;11033;47.490;11.116;2023-04-09T03:06:50;93624.59;;;2.37;99.91
21742;BME280;11033;47.490;11.116;2023-04-09T03:09:16;93616.97;;;2.45;99.83
21742;BME280;11033;47.490;11.116;2023-04-09T03:11:41;93614.00;;;2.49;100.00
21742;BME280;11033;47.490;11.116;2023-04-09T03:14:06;93612.50;;;2.57;99.65
21742;BME280;11033;47.490;11.116;2023-04-09T03:16:31;93614.00;;;2.49;99.25
21742;BME280;11033;47.490;11.116;2023-04-09T03:18:57;93611.13;;;2.52;99.50
21742;BME280;11033;47.490;11.116;2023-04-09T03:21:22;93616.41;;;2.41;100.00
21742;BME280;11033;47.490;11.116;2023-04-09T03:23:47;93612.88;;;2.42;99.33
21742;BME280;11033;47.490;11.116;2023-04-09T03:26:13;93611.38;;;2.49;99.38
21742;BME280;11033;47.490;11.116;2023-04-09T03:28:38;93605.03;;;2.63;98.08
21742;BME280;11033;47.490;11.116;2023-04-09T03:31:03;93600.09;;;2.60;98.50
21742;BME280;11033;47.490;11.116;2023-04-09T03:33:28;93603.69;;;2.69;97.75
21742;BME280;11033;47.490;11.116;2023-04-09T03:35:54;93607.78;;;2.62;97.77
21742;BME280;11033;47.490;11.116;2023-04-09T03:38:19;93600.41;;;2.67;97.67
21742;BME280;11033;47.490;11.116;2023-04-09T03:40:45;93597.03;;;2.55;98.89
21742;BME280;11033;47.490;11.116;2023-04-09T03:43:10;93606.81;;;2.63;97.48
21742;BME280;11033;47.490;11.116;2023-04-09T03:45:35;93604.97;;;2.53;98.92
21742;BME280;11033;47.490;11.116;2023-04-09T03:48:01;93606.13;;;2.61;98.38
21742;BME280;11033;47.490;11.116;2023-04-09T03:50:26;93600.22;;;2.59;99.37
21742;BME280;11033;47.490;11.116;2023-04-09T03:52:51;93597.69;;;2.68;98.79
21742;BME280;11033;47.490;11.116;2023-04-09T03:55:16;93598.22;;;2.72;97.12
21742;BME280;11033;47.490;11.116;2023-04-09T03:57:42;93603.06;;;2.55;98.89
21742;BME280;11033;47.490;11.116;2023-04-09T04:00:07;93604.44;;;2.60;97.67
21742;BME280;11033;47.490;11.116;2023-04-09T04:02:33;93600.13;;;2.39;99.47
21742;BME280;11033;47.490;11.116;2023-04-09T04:04:59;93593.38;;;2.27;100.00
21742;BME280;11033;47.490;11.116;2023-04-09T04:07:24;93595.28;;;2.25;100.00
21742;BME280;11033;47.490;11.116;2023-04-09T04:09:50;93599.16;;;2.10;100.00
21742;BME280;11033;47.490;11.116;2023-04-09T04:12:15;93604.28;;;2.21;100.00
21742;BME280;11033;47.490;11.116;2023-04-09T04:14:40;93600.78;;;2.32;99.90
21742;BME280;11033;47.490;11.116;2023-04-09T04:17:05;93602.19;;;2.15;100.00
21742;BME280;11033;47.490;11.116;2023-04-09T04:19:31;93602.00;;;2.07;100.00
21742;BME280;11033;47.490;11.116;2023-04-09T04:21:56;93613.38;;;2.06;100.00
21742;BME280;11033;47.490;11.116;2023-04-09T04:24:21;93606.44;;;2.16;100.00
21742;BME280;11033;47.490;11.116;2023-04-09T04:26:46;93613.47;;;2.25;99.86
21742;BME280;11033;47.490;11.116;2023-04-09T04:29:12;93616.72;;;2.17;99.86
21742;BME280;11033;47.490;11.116;2023-04-09T04:31:37;93621.72;;;2.09;100.00
21742;BME280;11033;47.490;11.116;2023-04-09T04:34:02;93620.66;;;2.12;100.00
21742;BME280;11033;47.490;11.116;2023-04-09T04:36:28;93619.88;;;2.21;99.52
21742;BME280;11033;47.490;11.116;2023-04-09T04:38:53;93620.84;;;1.99;100.00
21742;BME280;11033;47.490;11.116;2023-04-09T04:41:18;93619.78;;;1.90;100.00
21742;BME280;11033;47.490;11.116;2023-04-09T04:43:45;93621.44;;;1.91;100.00
21742;BME280;11033;47.490;11.116;2023-04-09T04:46:11;93626.69;;;1.80;100.00
21742;BME280;11033;47.490;11.116;2023-04-09T04:48:36;93619.09;;;1.88;100.00
21742;BME280;11033;47.490;11.116;2023-04-09T04:51:01;93624.28;;;1.88;100.00
21742;BME280;11033;47.490;11.116;2023-04-09T04:53:27;93625.00;;;1.90;100.00
21742;BME280;11033;47.490;11.116;2023-04-09T04:55:52;93631.47;;;1.96;100.00
21742;BME280;11033;47.490;11.116;2023-04-09T04:58:18;93625.69;;;1.92;100.00
21742;BME280;11033;47.490;11.116;2023-04-09T05:00:44;93629.75;;;1.85;100.00
21742;BME280;11033;47.490;11.116;2023-04-09T05:03:09;93629.94;;;1.94;100.00
21742;BME280;11033;47.490;11.116;2023-04-09T05:05:35;93637.06;;;2.12;100.00
21742;BME280;11033;47.490;11.116;2023-04-09T05:08:00;93633.69;;;2.01;100.00
21742;BME280;11033;47.490;11.116;2023-04-09T05:10:25;93630.41;;;1.99;100.00
21742;BME280;11033;47.490;11.116;2023-04-09T05:12:50;93628.31;;;2.13;100.00
21742;BME280;11033;47.490;11.116;2023-04-09T05:15:16;93626.28;;;2.17;100.00
21742;BME280;11033;47.490;11.116;2023-04-09T05:17:42;93632.53;;;2.35;99.89
21742;BME280;11033;47.490;11.116;2023-04-09T05:20:08;93629.06;;;2.25;100.00
21742;BME280;11033;47.490;11.116;2023-04-09T05:22:34;93630.25;;;2.21;100.00
21742;BME280;11033;47.490;11.116;2023-04-09T05:25:00;93633.81;;;2.20;100.00
21742;BME280;11033;47.490;11.116;2023-04-09T05:27:25;93635.47;;;2.21;100.00
21742;BME280;11033;47.490;11.116;2023-04-09T05:29:51;93629.56;;;2.19;100.00
21742;BME280;11033;47.490;11.116;2023-04-09T05:32:17;93627.34;;;2.35;100.00
21742;BME280;11033;47.490;11.116;2023-04-09T05:34:42;93619.66;;;2.34;100.00
21742;BME280;11033;47.490;11.116;2023-04-09T05:37:07;93631.06;;;2.42;100.00
21742;BME280;11033;47.490;11.116;2023-04-09T05:39:32;93626.94;;;2.61;99.88
21742;BME280;11033;47.490;11.116;2023-04-09T05:41:58;93623.97;;;2.75;98.28
21742;BME280;11033;47.490;11.116;2023-04-09T05:44:23;93633.78;;;2.62;99.64
21742;BME280;11033;47.490;11.116;2023-04-09T05:46:48;93635.41;;;2.63;100.00
21742;BME280;11033;47.490;11.116;2023-04-09T05:49:14;93637.63;;;2.67;100.00
21742;BME280;11033;47.490;11.116;2023-04-09T05:51:40;93638.47;;;2.68;100.00
21742;BME280;11033;47.490;11.116;2023-04-09T05:54:07;93637.69;;;2.86;99.25
21742;BME280;11033;47.490;11.116;2023-04-09T05:56:32;93634.16;;;2.88;99.04
21742;BME280;11033;47.490;11.116;2023-04-09T05:58:58;93641.00;;;2.89;98.40
21742;BME280;11033;47.490;11.116;2023-04-09T06:01:23;93638.31;;;3.09;97.30
21742;BME280;11033;47.490;11.116;2023-04-09T06:03:48;93643.88;;;3.26;95.77
21742;BME280;11033;47.490;11.116;2023-04-09T06:06:13;93638.88;;;3.13;97.29
21742;BME280;11033;47.490;11.116;2023-04-09T06:08:39;93636.41;;;3.11;96.61
21742;BME280;11033;47.490;11.116;2023-04-09T06:11:08;93640.19;;;3.38;95.84
21742;BME280;11033;47.490;11.116;2023-04-09T06:13:33;93642.50;;;3.31;95.64
21742;BME280;11033;47.490;11.116;2023-04-09T06:15:58;93642.78;;;3.38;96.08
21742;BME280;11033;47.490;11.116;2023-04-09T06:18:23;93649.94;;;3.65;94.68
21742;BME280;11033;47.490;11.116;2023-04-09T06:20:49;93643.34;;;3.61;94.47
21742;BME280;11033;47.490;11.116;2023-04-09T06:23:14;93638.97;;;3.71;94.94
21742;BME280;11033;47.490;11.116;2023-04-09T06:25:39;93644.47;;;3.77;94.30
21742;BME280;11033;47.490;11.116;2023-04-09T06:28:05;93641.84;;;3.77;94.29
21742;BME280;11033;47.490;11.116;2023-04-09T06:30:30;93648.59;;;4.09;92.89
21742;BME280;11033;47.490;11.116;2023-04-09T06:32:56;93643.78;;;4.14;92.65
21742;BME280;11033;47.490;11.116;2023-04-09T06:35:21;93650.78;;;4.04;92.43
21742;BME280;11033;47.490;11.116;2023-04-09T06:37:47;93651.88;;;4.11;91.59
21742;BME280;11033;47.490;11.116;2023-04-09T06:40:13;93648.59;;;4.09;91.54
21742;BME280;11033;47.490;11.116;2023-04-09T06:42:38;93649.09;;;4.32;91.71
21742;BME280;11033;47.490;11.116;2023-04-09T06:45:04;93647.44;;;4.31;91.48
21742;BME280;11033;47.490;11.116;2023-04-09T06:47:33;93645.19;;;4.65;90.95
21742;BME280;11033;47.490;11.116;2023-04-09T06:50:00;93654.00;;;4.64;91.07
21742;BME280;11033;47.490;11.116;2023-04-09T06:52:25;93659.09;;;4.93;89.34
21742;BME280;11033;47.490;11.116;2023-04-09T06:54:50;93649.78;;;4.90;87.15
21742;BME280;11033;47.490;11.116;2023-04-09T06:57:15;93655.25;;;4.97;87.60
21742;BME280;11033;47.490;11.116;2023-04-09T06:59:41;93657.72;;;4.98;87.81
21742;BME280;11033;47.490;11.116;2023-04-09T07:02:06;93650.81;;;5.34;86.56
21742;BME280;11033;47.490;11.116;2023-04-09T07:04:31;93661.41;;;5.33;86.94
21742;BME280;11033;47.490;11.116;2023-04-09T07:06:57;93653.50;;;5.25;87.52
21742;BME280;11033;47.490;11.116;2023-04-09T07:09:23;93654.75;;;5.21;85.66
21742;BME280;11033;47.490;11.116;2023-04-09T07:11:48;93664.59;;;5.54;85.72
21742;BME280;11033;47.490;11.116;2023-04-09T07:14:13;93652.59;;;5.61;85.51
21742;BME280;11033;47.490;11.116;2023-04-09T07:16:39;93655.06;;;5.81;84.83
21742;BME280;11033;47.490;11.116;2023-04-09T07:19:04;93656.84;;;5.90;84.44
21742;BME280;11033;47.490;11.116;2023-04-09T07:21:31;93663.31;;;6.21;84.69
21742;BME280;11033;47.490;11.116;2023-04-09T07:23:56;93664.16;;;6.04;83.27
21742;BME280;11033;47.490;11.116;2023-04-09T07:26:22;93663.13;;;5.97;81.83
21742;BME280;11033;47.490;11.116;2023-04-09T07:28:47;93662.13;;;6.33;81.98
21742;BME280;11033;47.490;11.116;2023-04-09T07:31:12;93669.31;;;6.14;81.81
21742;BME280;11033;47.490;11.116;2023-04-09T07:33:38;93674.22;;;6.34;82.04
21742;BME280;11033;47.490;11.116;2023-04-09T07:36:03;93673.91;;;6.55;81.51
21742;BME280;11033;47.490;11.116;2023-04-09T07:38:28;93669.59;;;6.28;82.76
21742;BME280;11033;47.490;11.116;2023-04-09T07:40:54;93673.56;;;6.15;81.65
21742;BME280;11033;47.490;11.116;2023-04-09T07:43:20;93669.28;;;6.31;82.06
21742;BME280;11033;47.490;11.116;2023-04-09T07:45:48;93666.59;;;6.59;80.71
21742;BME280;11033;47.490;11.116;2023-04-09T07:48:13;93666.94;;;6.46;79.97
21742;BME280;11033;47.490;11.116;2023-04-09T07:50:38;93670.28;;;6.74;80.07
21742;BME280;11033;47.490;11.116;2023-04-09T07:53:04;93668.31;;;6.50;77.99
21742;BME280;11033;47.490;11.116;2023-04-09T07:55:29;93671.72;;;6.94;78.37
21742;BME280;11033;47.490;11.116;2023-04-09T07:57:55;93665.69;;;7.28;77.49
21742;BME280;11033;47.490;11.116;2023-04-09T08:00:20;93669.91;;;7.21;77.09
21742;BME280;11033;47.490;11.116;2023-04-09T08:02:45;93660.66;;;7.43;77.24
21742;BME280;11033;47.490;11.116;2023-04-09T08:05:11;93659.34;;;7.39;77.62
21742;BME280;11033;47.490;11.116;2023-04-09T08:07:36;93663.94;;;7.45;78.27
21742;BME280;11033;47.490;11.116;2023-04-09T08:10:01;93666.63;;;7.69;76.96
21742;BME280;11033;47.490;11.116;2023-04-09T08:12:27;93667.31;;;7.79;77.07
21742;BME280;11033;47.490;11.116;2023-04-09T08:14:52;93662.53;;;7.67;75.66
21742;BME280;11033;47.490;11.116;2023-04-09T08:17:17;93669.00;;;7.38;76.13
21742;BME280;11033;47.490;11.116;2023-04-09T08:19:42;93668.50;;;7.09;76.95
21742;BME280;11033;47.490;11.116;2023-04-09T08:22:08;93675.50;;;7.00;76.75
21742;BME280;11033;47.490;11.116;2023-04-09T08:24:33;93674.31;;;6.94;77.07
21742;BME280;11033;47.490;11.116;2023-04-09T08:26:59;93667.59;;;7.18;76.81
21742;BME280;11033;47.490;11.116;2023-04-09T08:29:26;93668.34;;;7.36;76.37
21742;BME280;11033;47.490;11.116;2023-04-09T08:31:51;93671.53;;;7.56;76.05
21742;BME280;11033;47.490;11.116;2023-04-09T08:34:16;93673.88;;;7.33;74.60
21742;BME280;11033;47.490;11.116;2023-04-09T08:36:45;93669.41;;;7.59;74.15
21742;BME280;11033;47.490;11.116;2023-04-09T08:39:10;93665.22;;;7.32;72.71
21742;BME280;11033;47.490;11.116;2023-04-09T08:41:40;93668.56;;;7.51;72.47
21742;BME280;11033;47.490;11.116;2023-04-09T08:44:06;93670.28;;;7.34;71.34
21742;BME280;11033;47.490;11.116;2023-04-09T08:46:35;93673.38;;;7.80;69.95
21742;BME280;11033;47.490;11.116;2023-04-09T08:49:00;93668.38;;;8.03;71.07
21742;BME280;11033;47.490;11.116;2023-04-09T08:51:26;93667.81;;;7.75;70.29
21742;BME280;11033;47.490;11.116;2023-04-09T08:53:57;93668.94;;;8.39;70.65
21742;BME280;11033;47.490;11.116;2023-04-09T08:56:23;93671.88;;;8.93;68.53
21742;BME280;11033;47.490;11.116;2023-04-09T08:58:49;93675.31;;;8.93;67.57
21742;BME280;11033;47.490;11.116;2023-04-09T09:01:24;93667.25;;;9.03;67.34
21742;BME280;11033;47.490;11.116;2023-04-09T09:03:57;93672.88;;;8.35;67.05
21742;BME280;11033;47.490;11.116;2023-04-09T09:06:24;93674.03;;;8.81;68.66
21742;BME280;11033;47.490;11.116;2023-04-09T09:08:59;93669.50;;;9.30;66.73
21742;BME280;11033;47.490;11.116;2023-04-09T09:11:25;93677.63;;;9.51;66.16
21742;BME280;11033;47.490;11.116;2023-04-09T09:13:57;93676.56;;;9.77;66.01
21742;BME280;11033;47.490;11.116;2023-04-09T09:16:22;93664.06;;;9.40;67.18
21742;BME280;11033;47.490;11.116;2023-04-09T09:18:48;93666.56;;;10.03;65.13
21742;BME280;11033;47.490;11.116;2023-04-09T09:21:15;93673.50;;;10.73;64.17
21742;BME280;11033;47.490;11.116;2023-04-09T09:23:41;93671.91;;;10.49;63.93
21742;BME280;11033;47.490;11.116;2023-04-09T09:26:30;93665.97;;;9.93;64.73
21742;BME280;11033;47.490;11.116;2023-04-09T09:28:56;93672.44;;;9.74;63.87
21742;BME280;11033;47.490;11.116;2023-04-09T09:31:25;93661.88;;;10.22;64.71
21742;BME280;11033;47.490;11.116;2023-04-09T09:33:50;93668.50;;;9.78;61.33
21742;BME280;11033;47.490;11.116;2023-04-09T09:36:32;93659.22;;;10.22;61.24
21742;BME280;11033;47.490;11.116;2023-04-09T09:38:59;93656.66;;;10.59;62.44
21742;BME280;11033;47.490;11.116;2023-04-09T09:41:28;93659.47;;;10.35;61.91
21742;BME280;11033;47.490;11.116;2023-04-09T09:43:53;93659.06;;;10.69;59.99
21742;BME280;11033;47.490;11.116;2023-04-09T09:46:20;93657.06;;;9.94;61.65
21742;BME280;11033;47.490;11.116;2023-04-09T09:48:46;93661.53;;;10.85;60.63
21742;BME280;11033;47.490;11.116;2023-04-09T09:51:12;93651.78;;;11.53;60.94
21742;BME280;11033;47.490;11.116;2023-04-09T09:53:40;93652.16;;;11.35;58.96
21742;BME280;11033;47.490;11.116;2023-04-09T09:56:13;93654.34;;;11.75;59.09
21742;BME280;11033;47.490;11.116;2023-04-09T09:58:53;93658.25;;;11.65;57.23
21742;BME280;11033;47.490;11.116;2023-04-09T10:01:23;93652.06;;;11.87;55.54
21742;BME280;11033;47.490;11.116;2023-04-09T10:03:50;93654.19;;;12.13;56.00
21742;BME280;11033;47.490;11.116;2023-04-09T10:06:17;93649.69;;;11.63;53.99
21742;BME280;11033;47.490;11.116;2023-04-09T10:08:42;93646.63;;;11.74;55.97
21742;BME280;11033;47.490;11.116;2023-04-09T10:11:09;93647.41;;;12.04;54.26
21742;BME280;11033;47.490;11.116;2023-04-09T10:13:37;93643.97;;;11.74;54.00
21742;BME280;11033;47.490;11.116;2023-04-09T10:16:04;93648.56;;;10.98;56.44
21742;BME280;11033;47.490;11.116;2023-04-09T10:18:31;93642.50;;;10.60;54.57
21742;BME280;11033;47.490;11.116;2023-04-09T10:20:59;93647.38;;;10.17;56.14
21742;BME280;11033;47.490;11.116;2023-04-09T10:23:38;93648.44;;;10.77;56.99
21742;BME280;11033;47.490;11.116;2023-04-09T10:26:04;93641.72;;;11.12;54.03
21742;BME280;11033;47.490;11.116;2023-04-09T10:28:30;93639.44;;;11.38;55.37
21742;BME280;11033;47.490;11.116;2023-04-09T10:30:56;93636.44;;;11.12;54.34
21742;BME280;11033;47.490;11.116;2023-04-09T10:33:23;93628.84;;;12.19;54.68
21742;BME280;11033;47.490;11.116;2023-04-09T10:35:51;93631.78;;;11.14;53.96
21742;BME280;11033;47.490;11.116;2023-04-09T10:38:32;93624.31;;;11.91;53.53
21742;BME280;11033;47.490;11.116;2023-04-09T10:40:57;93628.94;;;11.60;52.67
21742;BME280;11033;47.490;11.116;2023-04-09T10:43:23;93628.38;;;12.51;52.40
21742;BME280;11033;47.490;11.116;2023-04-09T10:45:48;93619.34;;;12.39;48.89
21742;BME280;11033;47.490;11.116;2023-04-09T10:48:18;93622.50;;;12.34;51.38
21742;BME280;11033;47.490;11.116;2023-04-09T10:50:44;93628.31;;;11.72;52.52
21742;BME280;11033;47.490;11.116;2023-04-09T10:53:23;93630.84;;;11.95;52.66
21742;BME280;11033;47.490;11.116;2023-04-09T10:55:49;93623.81;;;12.38;49.79
21742;BME280;11033;47.490;11.116;2023-04-09T10:58:15;93627.34;;;12.31;51.67
21742;BME280;11033;47.490;11.116;2023-04-09T11:00:46;93623.69;;;12.11;49.22
21742;BME280;11033;47.490;11.116;2023-04-09T11:05:50;93625.06;;;12.06;50.54
21742;BME280;11033;47.490;11.116;2023-04-09T11:08:16;93617.28;;;11.98;50.99
21742;BME280;11033;47.490;11.116;2023-04-09T11:10:43;93623.44;;;12.05;51.02
21742;BME280;11033;47.490;11.116;2023-04-09T11:13:13;93625.06;;;11.85;51.17
21742;BME280;11033;47.490;11.116;2023-04-09T11:15:39;93624.19;;;11.99;52.47
21742;BME280;11033;47.490;11.116;2023-04-09T11:18:05;93622.28;;;11.93;51.80
21742;BME280;11033;47.490;11.116;2023-04-09T11:20:38;93625.16;;;11.48;49.71
21742;BME280;11033;47.490;11.116;2023-04-09T11:23:04;93618.41;;;11.89;50.92
21742;BME280;11033;47.490;11.116;2023-04-09T11:25:31;93617.66;;;11.66;50.12
21742;BME280;11033;47.490;11.116;2023-04-09T11:27:57;93626.44;;;11.22;49.87
21742;BME280;11033;47.490;11.116;2023-04-09T11:30:23;93627.22;;;11.52;50.71
21742;BME280;11033;47.490;11.116;2023-04-09T11:32:48;93626.03;;;11.55;50.13
21742;BME280;11033;47.490;11.116;2023-04-09T11:35:16;93620.41;;;11.43;50.99
21742;BME280;11033;47.490;11.116;2023-04-09T11:37:43;93624.31;;;11.62;50.84
21742;BME280;11033;47.490;11.116;2023-04-09T11:40:22;93619.59;;;11.28;51.35
21742;BME280;11033;47.490;11.116;2023-04-09T11:42:49;93615.66;;;11.68;50.17
21742;BME280;11033;47.490;11.116;2023-04-09T11:45:16;93622.44;;;11.26;49.67
21742;BME280;11033;47.490;11.116;2023-04-09T11:47:43;93627.59;;;11.49;49.04
21742;BME280;11033;47.490;11.116;2023-04-09T11:50:10;93623.94;;;12.16;48.24
21742;BME280;11033;47.490;11.116;2023-04-09T11:52:36;93622.56;;;11.98;45.77
21742;BME280;11033;47.490;11.116;2023-04-09T11:55:02;93631.06;;;11.79;47.82
21742;BME280;11033;47.490;11.116;2023-04-09T11:57:39;93626.72;;;12.07;46.59
21742;BME280;11033;47.490;11.116;2023-04-09T12:00:07;93628.06;;;11.82;45.49
21742;BME280;11033;47.490;11.116;2023-04-09T12:02:33;93633.50;;;13.02;47.02
21742;BME280;11033;47.490;11.116;2023-04-09T12:05:02;93631.44;;;13.25;46.18
21742;BME280;11033;47.490;11.116;2023-04-09T12:07:37;93622.88;;;13.23;44.00
21742;BME280;11033;47.490;11.116;2023-04-09T12:10:05;93615.59;;;14.21;44.08
21742;BME280;11033;47.490;11.116;2023-04-09T12:12:30;93617.72;;;14.45;44.19
21742;BME280;11033;47.490;11.116;2023-04-09T12:15:09;93617.31;;;16.88;40.71
21742;BME280;11033;47.490;11.116;2023-04-09T12:17:34;93621.03;;;15.07;41.52
21742;BME280;11033;47.490;11.116;2023-04-09T12:20:00;93617.75;;;15.25;41.89
21742;BME280;11033;47.490;11.116;2023-04-09T12:22:26;93622.66;;;14.62;44.22
21742;BME280;11033;47.490;11.116;2023-04-09T12:24:51;93622.44;;;14.70;45.00
21742;BME280;11033;47.490;11.116;2023-04-09T12:27:16;93628.06;;;13.73;46.24
21742;BME280;11033;47.490;11.116;2023-04-09T12:29:42;93619.53;;;13.84;45.18
21742;BME280;11033;47.490;11.116;2023-04-09T12:32:07;93628.09;;;13.45;46.09
21742;BME280;11033;47.490;11.116;2023-04-09T12:34:32;93621.56;;;13.75;45.80
21742;BME280;11033;47.490;11.116;2023-04-09T12:36:58;93617.81;;;13.63;45.45
21742;BME280;11033;47.490;11.116;2023-04-09T12:39:23;93614.53;;;13.61;43.42
21742;BME280;11033;47.490;11.116;2023-04-09T12:41:48;93609.44;;;13.18;43.34
21742;BME280;11033;47.490;11.116;2023-04-09T12:44:13;93611.13;;;13.32;46.28
21742;BME280;11033;47.490;11.116;2023-04-09T12:46:39;93610.72;;;12.80;48.38
21742;BME280;11033;47.490;11.116;2023-04-09T12:49:04;93615.16;;;14.11;46.49
21742;BME280;11033;47.490;11.116;2023-04-09T12:51:30;93613.56;;;14.23;46.83
21742;BME280;11033;47.490;11.116;2023-04-09T12:53:55;93616.13;;;15.10;44.77
21742;BME280;11033;47.490;11.116;2023-04-09T12:56:20;93607.28;;;14.37;44.82
21742;BME280;11033;47.490;11.116;2023-04-09T12:58:46;93652.28;;;23.40;34.15
21742;BME280;11033;47.490;11.116;2023-04-09T13:01:12;93636.84;;;32.48;24.83
21742;BME280;11033;47.490;11.116;2023-04-09T13:03:37;93650.88;;;28.30;27.12